Time;durP1;ratioP1;P1;durP2;ratioP2;P2;SDS_P1;SDS_P2;PMS_P1;PMS_P2;Temp;Humidity;BMP_temperature;BMP_pressure;BME280_temperature;BME280_humidity;BME280_pressure;Samples;Min_cycle;Max_cycle;Signal;HPM_P1;HPM_P2
2023/07/13 00:01:49;;;;;;;3.33;1.23;;;;;;;;;;5095089;28;20450;-83
2023/07/13 00:04:17;;;;;;;10.13;1.93;;;;;;;;;;5096355;28;20385;-83
2023/07/13 00:06:44;;;;;;;3.70;1.40;;;;;;;;;;5096479;28;20798;-83
2023/07/13 00:09:12;;;;;;;3.83;1.70;;;;;;;;;;5095046;28;20924;-83
2023/07/13 00:11:38;;;;;;;2.17;1.40;;;;;;;;;;5096093;28;20747;-83
2023/07/13 00:14:04;;;;;;;3.60;1.37;;;;;;;;;;5096599;28;20390;-82
2023/07/13 00:16:30;;;;;;;3.43;1.50;;;;;;;;;;5098142;28;20410;-82
2023/07/13 00:18:56;;;;;;;2.20;1.17;;;;;;;;;;5101640;28;20385;-82
2023/07/13 00:21:22;;;;;;;3.90;1.70;;;;;;;;;;5099691;28;20421;-82
2023/07/13 00:23:49;;;;;;;3.73;1.60;;;;;;;;;;5106881;28;20464;-82
2023/07/13 00:26:15;;;;;;;3.90;1.40;;;;;;;;;;5099843;28;20385;-82
2023/07/13 00:28:41;;;;;;;6.47;1.70;;;;;;;;;;5097043;28;20437;-82
2023/07/13 00:31:07;;;;;;;4.40;1.70;;;;;;;;;;5095212;28;20461;-82
2023/07/13 00:33:33;;;;;;;6.53;1.83;;;;;;;;;;5094907;28;20430;-83
2023/07/13 00:35:59;;;;;;;2.97;1.37;;;;;;;;;;5078028;28;20479;-82
2023/07/13 00:38:25;;;;;;;3.87;1.57;;;;;;;;;;5077811;28;20579;-82
2023/07/13 00:40:51;;;;;;;4.50;1.10;;;;;;;;;;5094685;28;20396;-83
2023/07/13 00:43:19;;;;;;;6.10;1.70;;;;;;;;;;5094050;28;20436;-82
2023/07/13 00:45:45;;;;;;;4.10;1.50;;;;;;;;;;5095761;28;20409;-82
2023/07/13 00:48:13;;;;;;;6.03;1.40;;;;;;;;;;5095409;28;20374;-82
2023/07/13 00:50:39;;;;;;;5.27;1.80;;;;;;;;;;5095070;28;20426;-82
2023/07/13 00:53:05;;;;;;;2.47;1.40;;;;;;;;;;5077830;28;20466;-82
2023/07/13 00:55:31;;;;;;;3.83;1.50;;;;;;;;;;5095136;28;20913;-82
2023/07/13 00:57:58;;;;;;;5.43;1.60;;;;;;;;;;5077467;28;20417;-82
2023/07/13 01:00:25;;;;;;;5.20;1.70;;;;;;;;;;5077008;28;20523;-82
2023/07/13 01:02:51;;;;;;;4.20;1.70;;;;;;;;;;5094042;28;20470;-82
2023/07/13 01:05:19;;;;;;;6.10;1.60;;;;;;;;;;5077067;28;20392;-82
2023/07/13 01:07:46;;;;;;;3.93;1.40;;;;;;;;;;5094084;28;20748;-83
2023/07/13 01:10:13;;;;;;;4.30;2.33;;;;;;;;;;5095209;28;20410;-82
2023/07/13 01:12:39;;;;;;;2.80;1.20;;;;;;;;;;5094032;28;20433;-83
2023/07/13 01:15:05;;;;;;;6.70;1.30;;;;;;;;;;5095295;28;20398;-82
2023/07/13 01:17:32;;;;;;;3.93;1.47;;;;;;;;;;5093866;28;20435;-83
2023/07/13 01:19:59;;;;;;;2.33;1.30;;;;;;;;;;5095517;28;20405;-83
2023/07/13 01:22:26;;;;;;;4.70;1.23;;;;;;;;;;5092961;28;21012;-83
2023/07/13 01:24:53;;;;;;;4.20;1.40;;;;;;;;;;5077174;28;20419;-83
2023/07/13 01:27:24;;;;;;;5.03;2.07;;;;;;;;;;5093557;28;20471;-82
2023/07/13 01:29:51;;;;;;;5.20;1.80;;;;;;;;;;5093635;28;20448;-83
2023/07/13 01:32:23;;;;;;;8.83;2.33;;;;;;;;;;5094620;28;20385;-83
2023/07/13 01:34:50;;;;;;;5.73;1.57;;;;;;;;;;5095343;28;20382;-83
2023/07/13 01:37:16;;;;;;;4.30;1.70;;;;;;;;;;5093425;28;20418;-82
2023/07/13 01:39:42;;;;;;;4.20;2.10;;;;;;;;;;5095005;28;20414;-83
2023/07/13 01:42:08;;;;;;;2.90;1.70;;;;;;;;;;5093781;28;20564;-83
2023/07/13 01:44:34;;;;;;;4.23;2.53;;;;;;;;;;5094575;28;20753;-83
2023/07/13 01:47:02;;;;;;;3.40;1.30;;;;;;;;;;5095210;28;20800;-83
2023/07/13 01:49:28;;;;;;;7.80;1.67;;;;;;;;;;5094812;28;20544;-83
2023/07/13 01:51:55;;;;;;;3.00;1.50;;;;;;;;;;5077196;28;20886;-83
2023/07/13 01:54:21;;;;;;;5.50;1.93;;;;;;;;;;5093883;28;20430;-83
2023/07/13 01:56:47;;;;;;;2.13;1.50;;;;;;;;;;5095130;28;20426;-83
2023/07/13 01:59:13;;;;;;;5.27;1.80;;;;;;;;;;5077046;28;20484;-83
2023/07/13 02:01:39;;;;;;;4.43;1.67;;;;;;;;;;5093437;28;20433;-83
2023/07/13 02:04:05;;;;;;;7.87;1.90;;;;;;;;;;5093254;28;20418;-83
2023/07/13 02:06:31;;;;;;;5.70;1.87;;;;;;;;;;5093522;28;20406;-83
2023/07/13 02:08:58;;;;;;;2.93;1.43;;;;;;;;;;5076980;28;20414;-83
2023/07/13 02:11:24;;;;;;;3.83;1.20;;;;;;;;;;5093476;28;20389;-82
2023/07/13 02:13:50;;;;;;;2.07;1.53;;;;;;;;;;5076829;28;20422;-82
2023/07/13 02:16:16;;;;;;;4.60;1.83;;;;;;;;;;5093031;28;20489;-82
2023/07/13 02:18:42;;;;;;;3.07;1.90;;;;;;;;;;5093389;28;20515;-83
2023/07/13 02:21:08;;;;;;;8.60;1.70;;;;;;;;;;5093174;28;20414;-83
2023/07/13 02:23:35;;;;;;;6.50;2.07;;;;;;;;;;5094571;28;20820;-83
2023/07/13 02:26:02;;;;;;;10.70;2.10;;;;;;;;;;5093370;28;20410;-83
2023/07/13 02:28:28;;;;;;;7.47;2.20;;;;;;;;;;5094137;28;20456;-83
2023/07/13 02:30:54;;;;;;;8.73;1.93;;;;;;;;;;5093313;28;20388;-83
2023/07/13 02:33:20;;;;;;;3.90;2.23;;;;;;;;;;5095454;28;20776;-83
2023/07/13 02:35:46;;;;;;;7.20;2.20;;;;;;;;;;5098425;28;20467;-82
2023/07/13 02:38:12;;;;;;;4.07;2.00;;;;;;;;;;5098482;28;20402;-83
2023/07/13 02:40:38;;;;;;;3.77;1.60;;;;;;;;;;5096515;28;20893;-82
2023/07/13 02:43:04;;;;;;;7.60;2.23;;;;;;;;;;5097127;28;20470;-83
2023/07/13 02:45:30;;;;;;;4.23;1.70;;;;;;;;;;5096365;28;20456;-83
2023/07/13 02:47:56;;;;;;;5.60;2.00;;;;;;;;;;5096654;28;20776;-82
2023/07/13 02:50:22;;;;;;;6.73;1.90;;;;;;;;;;5080124;28;20426;-82
2023/07/13 02:52:48;;;;;;;3.20;1.63;;;;;;;;;;5097829;28;20411;-82
2023/07/13 02:55:14;;;;;;;4.10;1.90;;;;;;;;;;5079986;28;20479;-83
2023/07/13 02:57:40;;;;;;;9.30;2.03;;;;;;;;;;5097207;28;20501;-82
2023/07/13 03:00:07;;;;;;;2.00;1.60;;;;;;;;;;5096486;28;20503;-82
2023/07/13 03:02:33;;;;;;;7.00;2.30;;;;;;;;;;5096030;28;20781;-82
2023/07/13 03:04:59;;;;;;;6.30;2.77;;;;;;;;;;5096837;28;20415;-82
2023/07/13 03:07:25;;;;;;;2.90;1.87;;;;;;;;;;5097748;28;20417;-82
2023/07/13 03:10:00;;;;;;;7.63;1.67;;;;;;;;;;5097568;28;20488;-82
2023/07/13 03:12:26;;;;;;;5.37;1.90;;;;;;;;;;5097497;28;20390;-82
2023/07/13 03:14:52;;;;;;;4.87;1.83;;;;;;;;;;5096213;28;20418;-82
2023/07/13 03:17:18;;;;;;;3.30;1.53;;;;;;;;;;5096859;28;20405;-82
2023/07/13 03:19:44;;;;;;;5.07;2.00;;;;;;;;;;5096492;28;20423;-82
2023/07/13 03:22:10;;;;;;;8.90;2.23;;;;;;;;;;5096632;28;20942;-82
2023/07/13 03:24:37;;;;;;;4.77;2.00;;;;;;;;;;5095920;28;20464;-82
2023/07/13 03:27:05;;;;;;;9.17;2.07;;;;;;;;;;5095899;28;20406;-82
2023/07/13 03:29:31;;;;;;;4.80;2.30;;;;;;;;;;5095814;28;20944;-82
2023/07/13 03:31:57;;;;;;;4.20;1.50;;;;;;;;;;5097116;28;20407;-82
2023/07/13 03:34:24;;;;;;;12.00;1.90;;;;;;;;;;5097355;28;20789;-82
2023/07/13 03:36:51;;;;;;;4.67;1.77;;;;;;;;;;5097360;28;20410;-82
2023/07/13 03:39:16;;;;;;;3.63;1.80;;;;;;;;;;5097217;28;20763;-82
2023/07/13 03:41:42;;;;;;;3.60;1.87;;;;;;;;;;5079081;28;20393;-82
2023/07/13 03:44:08;;;;;;;5.80;1.73;;;;;;;;;;5096836;28;20406;-82
2023/07/13 03:46:34;;;;;;;5.23;2.20;;;;;;;;;;5096035;28;20414;-82
2023/07/13 03:49:02;;;;;;;4.27;1.63;;;;;;;;;;5079046;28;20935;-82
2023/07/13 03:51:28;;;;;;;4.17;1.90;;;;;;;;;;5095701;28;20416;-82
2023/07/13 03:53:54;;;;;;;2.60;1.97;;;;;;;;;;5079645;28;20422;-82
2023/07/13 03:56:20;;;;;;;4.27;1.80;;;;;;;;;;5095281;28;20418;-82
2023/07/13 03:58:47;;;;;;;4.00;1.87;;;;;;;;;;5095571;28;20745;-82
2023/07/13 04:01:13;;;;;;;6.03;2.40;;;;;;;;;;5097494;28;20402;-82
2023/07/13 04:03:40;;;;;;;8.33;2.03;;;;;;;;;;5096330;28;20454;-82
2023/07/13 04:06:07;;;;;;;3.30;1.50;;;;;;;;;;5096681;28;20385;-82
2023/07/13 04:08:34;;;;;;;2.50;1.80;;;;;;;;;;5095033;28;20468;-82
2023/07/13 04:11:00;;;;;;;4.57;2.07;;;;;;;;;;5096492;28;20402;-82
2023/07/13 04:13:26;;;;;;;5.30;2.37;;;;;;;;;;5096288;28;20396;-82
2023/07/13 04:15:52;;;;;;;4.47;1.97;;;;;;;;;;5078573;28;20906;-82
2023/07/13 04:18:19;;;;;;;6.40;2.47;;;;;;;;;;5095275;28;20551;-82
2023/07/13 04:20:45;;;;;;;11.23;2.27;;;;;;;;;;5095194;28;20429;-82
2023/07/13 04:23:11;;;;;;;3.47;2.20;;;;;;;;;;5096276;28;20454;-82
2023/07/13 04:25:37;;;;;;;5.40;2.50;;;;;;;;;;5094722;28;20428;-82
2023/07/13 04:28:04;;;;;;;3.87;2.13;;;;;;;;;;5094679;28;20456;-82
2023/07/13 04:30:30;;;;;;;2.90;1.87;;;;;;;;;;5094498;28;20823;-82
2023/07/13 04:32:56;;;;;;;2.53;2.03;;;;;;;;;;5094636;28;20422;-82
2023/07/13 04:35:22;;;;;;;5.43;2.40;;;;;;;;;;5078009;28;20425;-82
2023/07/13 04:37:50;;;;;;;3.37;1.97;;;;;;;;;;5078050;28;20840;-82
2023/07/13 04:40:16;;;;;;;12.73;4.43;;;;;;;;;;5095821;28;20384;-82
2023/07/13 04:42:42;;;;;;;2.27;1.63;;;;;;;;;;5095972;28;20532;-82
2023/07/13 04:45:08;;;;;;;5.40;2.10;;;;;;;;;;5096390;28;20406;-82
2023/07/13 04:47:34;;;;;;;4.10;1.70;;;;;;;;;;5094675;28;20420;-82
2023/07/13 04:50:00;;;;;;;6.13;1.80;;;;;;;;;;5095871;28;20453;-82
2023/07/13 04:52:26;;;;;;;8.63;1.90;;;;;;;;;;5094052;28;20505;-82
2023/07/13 04:54:52;;;;;;;3.57;1.97;;;;;;;;;;5094845;28;20869;-82
2023/07/13 04:57:17;;;;;;;3.97;1.97;;;;;;;;;;5095092;28;20403;-82
2023/07/13 04:59:43;;;;;;;10.77;2.40;;;;;;;;;;5094372;28;20445;-82
2023/07/13 05:02:09;;;;;;;5.10;1.90;;;;;;;;;;5095762;28;20826;-84
2023/07/13 05:04:35;;;;;;;4.40;2.00;;;;;;;;;;5093988;28;20422;-85
2023/07/13 05:07:01;;;;;;;7.40;2.30;;;;;;;;;;5094821;28;20402;-85
2023/07/13 05:09:27;;;;;;;7.40;2.17;;;;;;;;;;5093575;28;20516;-85
2023/07/13 05:11:53;;;;;;;5.23;1.97;;;;;;;;;;5094034;28;20418;-84
2023/07/13 05:14:19;;;;;;;4.23;2.20;;;;;;;;;;5077238;28;20910;-84
2023/07/13 05:16:45;;;;;;;5.33;2.00;;;;;;;;;;5077483;28;20422;-85
2023/07/13 05:19:12;;;;;;;5.87;1.97;;;;;;;;;;5076878;28;20397;-85
2023/07/13 05:21:38;;;;;;;5.07;2.00;;;;;;;;;;5093500;28;20418;-85
2023/07/13 05:24:04;;;;;;;10.87;2.40;;;;;;;;;;5093873;28;20481;-85
2023/07/13 05:26:30;;;;;;;13.23;2.87;;;;;;;;;;5093799;28;20457;-85
2023/07/13 05:28:56;;;;;;;4.20;1.80;;;;;;;;;;5093829;28;20426;-85
2023/07/13 05:31:22;;;;;;;6.43;2.23;;;;;;;;;;5093459;28;20745;-85
2023/07/13 05:33:48;;;;;;;5.40;2.10;;;;;;;;;;5093803;28;20418;-85
2023/07/13 05:36:14;;;;;;;9.80;2.13;;;;;;;;;;5093159;28;20798;-85
2023/07/13 05:38:40;;;;;;;6.80;1.97;;;;;;;;;;5094543;28;20381;-85
2023/07/13 05:41:06;;;;;;;6.60;1.60;;;;;;;;;;5093562;28;20385;-85
2023/07/13 05:43:32;;;;;;;6.50;2.20;;;;;;;;;;5076307;28;21035;-85
2023/07/13 05:45:58;;;;;;;10.53;2.37;;;;;;;;;;5093111;28;20421;-85
2023/07/13 05:48:24;;;;;;;4.00;1.70;;;;;;;;;;5076248;28;20436;-85
2023/07/13 05:50:50;;;;;;;4.30;1.90;;;;;;;;;;5076404;28;20819;-85
2023/07/13 05:53:18;;;;;;;3.90;1.80;;;;;;;;;;5094517;28;20840;-85
2023/07/13 05:55:52;;;;;;;6.80;2.80;;;;;;;;;;5076639;28;20415;-84
2023/07/13 05:58:19;;;;;;;7.10;2.30;;;;;;;;;;5092943;28;20514;-86
2023/07/13 06:00:45;;;;;;;5.07;2.27;;;;;;;;;;5092731;28;20766;-85
2023/07/13 06:03:11;;;;;;;5.40;2.03;;;;;;;;;;5092408;28;20439;-85
2023/07/13 06:05:37;;;;;;;4.60;2.17;;;;;;;;;;5093216;28;20385;-85
2023/07/13 06:08:03;;;;;;;9.40;2.80;;;;;;;;;;5092949;28;20496;-84
2023/07/13 06:10:30;;;;;;;4.10;2.53;;;;;;;;;;5076487;28;20422;-84
2023/07/13 06:12:56;;;;;;;5.83;2.07;;;;;;;;;;5094141;28;20491;-84
2023/07/13 06:15:22;;;;;;;5.70;2.00;;;;;;;;;;5092869;28;20385;-84
2023/07/13 06:17:48;;;;;;;6.57;2.37;;;;;;;;;;5094828;28;20763;-84
2023/07/13 06:20:14;;;;;;;4.97;2.60;;;;;;;;;;5079412;28;20411;-84
2023/07/13 06:22:40;;;;;;;7.00;3.30;;;;;;;;;;5080553;28;20458;-85
2023/07/13 06:25:06;;;;;;;11.97;2.53;;;;;;;;;;5100929;28;20885;-85
2023/07/13 06:27:32;;;;;;;7.03;2.97;;;;;;;;;;5098974;28;20412;-84
2023/07/13 06:29:58;;;;;;;6.93;2.23;;;;;;;;;;5094109;28;20520;-84
2023/07/13 06:32:24;;;;;;;8.10;2.00;;;;;;;;;;5094897;28;20889;-84
2023/07/13 06:34:51;;;;;;;6.50;3.17;;;;;;;;;;5094338;28;20479;-83
2023/07/13 06:37:17;;;;;;;5.90;2.30;;;;;;;;;;5093817;28;20480;-83
2023/07/13 06:39:43;;;;;;;7.80;2.53;;;;;;;;;;5092867;28;20385;-85
2023/07/13 06:42:09;;;;;;;5.17;2.33;;;;;;;;;;5094127;28;21031;-84
2023/07/13 06:44:35;;;;;;;7.90;2.70;;;;;;;;;;5092530;28;20396;-84
2023/07/13 06:47:01;;;;;;;4.43;2.37;;;;;;;;;;5094200;28;20417;-85
2023/07/13 06:49:27;;;;;;;6.83;2.07;;;;;;;;;;5076008;28;20844;-83
2023/07/13 06:51:53;;;;;;;8.90;2.77;;;;;;;;;;5094219;28;20376;-84
2023/07/13 06:54:19;;;;;;;12.33;2.80;;;;;;;;;;5093370;28;20456;-84
2023/07/13 06:56:45;;;;;;;11.87;3.00;;;;;;;;;;5092832;28;20373;-84
2023/07/13 06:59:11;;;;;;;7.33;2.40;;;;;;;;;;5094319;28;20381;-84
2023/07/13 07:01:37;;;;;;;7.73;2.40;;;;;;;;;;5092403;28;20467;-86
2023/07/13 07:04:11;;;;;;;9.37;2.37;;;;;;;;;;5093833;28;20826;-89
2023/07/13 07:06:39;;;;;;;8.43;2.30;;;;;;;;;;5093534;28;20387;-91
2023/07/13 07:09:05;;;;;;;7.80;2.23;;;;;;;;;;5094259;28;20402;-89
2023/07/13 07:11:31;;;;;;;6.80;2.30;;;;;;;;;;5076575;28;20881;-89
2023/07/13 07:13:57;;;;;;;5.90;1.67;;;;;;;;;;5092670;28;20386;-89
2023/07/13 07:16:25;;;;;;;5.53;2.60;;;;;;;;;;5092369;28;20745;-89
2023/07/13 07:18:51;;;;;;;10.10;2.30;;;;;;;;;;5096332;28;20419;-88
2023/07/13 07:21:19;;;;;;;10.13;2.40;;;;;;;;;;5096335;28;20414;-88
2023/07/13 07:23:46;;;;;;;6.33;2.50;;;;;;;;;;5099057;28;20429;-90
2023/07/13 07:26:12;;;;;;;7.47;2.57;;;;;;;;;;5098153;28;20393;-89
2023/07/13 07:28:38;;;;;;;5.20;2.70;;;;;;;;;;5080319;28;20418;-81
2023/07/13 07:31:04;;;;;;;4.37;2.30;;;;;;;;;;5096493;28;20422;-81
2023/07/13 07:33:30;;;;;;;7.10;1.90;;;;;;;;;;5079191;28;20421;-81
2023/07/13 07:35:56;;;;;;;9.40;2.40;;;;;;;;;;5079700;28;20415;-82
2023/07/13 07:38:22;;;;;;;7.10;2.90;;;;;;;;;;5080971;28;20425;-81
2023/07/13 07:40:48;;;;;;;4.90;2.73;;;;;;;;;;5079263;28;20397;-81
2023/07/13 07:43:14;;;;;;;8.50;2.90;;;;;;;;;;5096687;28;20556;-82
2023/07/13 07:45:40;;;;;;;3.80;2.10;;;;;;;;;;5095380;28;20422;-80
2023/07/13 07:48:07;;;;;;;10.17;3.87;;;;;;;;;;5096023;28;20378;-80
2023/07/13 07:50:33;;;;;;;6.57;2.77;;;;;;;;;;5095869;28;20410;-80
2023/07/13 07:53:01;;;;;;;6.70;2.20;;;;;;;;;;5096910;28;20423;-81
2023/07/13 07:55:28;;;;;;;8.53;2.80;;;;;;;;;;5097093;28;20384;-80
2023/07/13 07:57:54;;;;;;;4.17;2.33;;;;;;;;;;5095710;28;20434;-81
2023/07/13 08:00:20;;;;;;;14.70;3.00;;;;;;;;;;5097367;28;20777;-81
2023/07/13 08:02:46;;;;;;;7.40;2.20;;;;;;;;;;5096314;28;20443;-81
2023/07/13 08:05:12;;;;;;;8.27;3.07;;;;;;;;;;5096153;28;20394;-81
2023/07/13 08:07:38;;;;;;;6.50;2.80;;;;;;;;;;5095099;28;20406;-82
2023/07/13 08:10:05;;;;;;;8.93;2.90;;;;;;;;;;5096494;28;20413;-81
2023/07/13 08:12:34;;;;;;;7.00;2.83;;;;;;;;;;5095106;28;20918;-81
2023/07/13 08:15:00;;;;;;;10.93;2.70;;;;;;;;;;5095262;28;20415;-82
2023/07/13 08:17:27;;;;;;;6.93;2.67;;;;;;;;;;5095089;28;20429;-81
2023/07/13 08:19:53;;;;;;;10.43;2.80;;;;;;;;;;5093983;28;20418;-81
2023/07/13 08:22:18;;;;;;;6.43;2.17;;;;;;;;;;5097866;28;20995;-80
2023/07/13 08:24:45;;;;;;;5.17;2.77;;;;;;;;;;5090763;28;20414;-81
2023/07/13 08:27:11;;;;;;;6.83;3.40;;;;;;;;;;5097336;28;20430;-81
2023/07/13 08:29:37;;;;;;;3.10;1.60;;;;;;;;;;5094963;28;20458;-84
2023/07/13 08:32:05;;;;;;;8.43;2.17;;;;;;;;;;5094717;28;20464;-81
2023/07/13 08:34:31;;;;;;;3.47;1.70;;;;;;;;;;5084753;28;20415;-81
2023/07/13 08:36:57;;;;;;;2.90;2.00;;;;;;;;;;5089203;28;20888;-80
2023/07/13 08:39:23;;;;;;;5.13;2.43;;;;;;;;;;5096043;28;20402;-82
2023/07/13 08:41:52;;;;;;;5.07;2.00;;;;;;;;;;5078912;28;20490;-81
2023/07/13 08:44:28;;;;;;;7.30;2.50;;;;;;;;;;5095857;28;20425;-81
2023/07/13 08:46:54;;;;;;;9.00;1.93;;;;;;;;;;5094695;28;20417;-80
2023/07/13 08:49:22;;;;;;;2.10;1.67;;;;;;;;;;5094074;28;20432;-81
2023/07/13 08:51:51;;;;;;;5.40;2.20;;;;;;;;;;5092098;28;20826;-82
2023/07/13 08:54:26;;;;;;;3.80;2.17;;;;;;;;;;5091075;28;20509;-82
2023/07/13 08:56:53;;;;;;;6.60;2.40;;;;;;;;;;5093637;28;20410;-81
2023/07/13 08:59:21;;;;;;;7.00;1.80;;;;;;;;;;5094492;28;20437;-81
2023/07/13 09:01:48;;;;;;;7.20;2.47;;;;;;;;;;5092804;28;20438;-81
2023/07/13 09:04:16;;;;;;;8.23;1.83;;;;;;;;;;5095461;28;20473;-82
2023/07/13 09:06:42;;;;;;;5.13;1.90;;;;;;;;;;5093807;28;20403;-82
2023/07/13 09:09:33;;;;;;;4.20;2.00;;;;;;;;;;5094161;28;20399;-81
2023/07/13 09:12:05;;;;;;;5.03;2.30;;;;;;;;;;5094621;28;20636;-80
2023/07/13 09:14:43;;;;;;;6.30;2.03;;;;;;;;;;5093669;28;20410;-81
2023/07/13 09:17:16;;;;;;;3.20;1.50;;;;;;;;;;5094400;28;20452;-80
2023/07/13 09:19:42;;;;;;;4.80;1.97;;;;;;;;;;5093511;28;20414;-81
2023/07/13 09:22:13;;;;;;;6.23;2.00;;;;;;;;;;5094063;28;20482;-81
2023/07/13 09:24:52;;;;;;;6.97;2.10;;;;;;;;;;5095186;28;20398;-81
2023/07/13 09:27:21;;;;;;;5.67;1.90;;;;;;;;;;5095083;28;20387;-80
2023/07/13 09:29:51;;;;;;;4.90;1.60;;;;;;;;;;5093832;28;20763;-80
2023/07/13 09:32:19;;;;;;;7.67;2.20;;;;;;;;;;5094946;28;20385;-81
2023/07/13 09:34:51;;;;;;;9.17;2.20;;;;;;;;;;5094322;28;20370;-81
2023/07/13 09:37:17;;;;;;;4.77;1.93;;;;;;;;;;5093857;28;20394;-81
2023/07/13 09:39:43;;;;;;;6.20;1.67;;;;;;;;;;5093740;28;20381;-83
2023/07/13 09:42:17;;;;;;;2.70;1.33;;;;;;;;;;5092909;28;20406;-81
2023/07/13 09:44:49;;;;;;;4.07;1.67;;;;;;;;;;5093204;28;20407;-82
2023/07/13 09:47:19;;;;;;;3.60;2.00;;;;;;;;;;5093366;28;20543;-82
2023/07/13 09:49:46;;;;;;;4.50;2.50;;;;;;;;;;5093069;28;20481;-81
2023/07/13 09:52:15;;;;;;;6.57;2.30;;;;;;;;;;5095245;28;20414;-83
2023/07/13 09:54:44;;;;;;;9.33;2.03;;;;;;;;;;5093508;28;20448;-82
2023/07/13 09:57:15;;;;;;;5.13;1.83;;;;;;;;;;5093262;28;20924;-82
2023/07/13 09:59:45;;;;;;;6.80;1.50;;;;;;;;;;5093025;28;20422;-82
2023/07/13 10:02:23;;;;;;;4.70;2.00;;;;;;;;;;5094063;28;20913;-81
2023/07/13 10:04:55;;;;;;;4.50;2.03;;;;;;;;;;5092836;28;20422;-80
2023/07/13 10:07:23;;;;;;;4.40;1.87;;;;;;;;;;5093924;28;20391;-80
2023/07/13 10:09:54;;;;;;;3.73;2.03;;;;;;;;;;5094402;28;20764;-81
2023/07/13 10:12:20;;;;;;;5.83;2.33;;;;;;;;;;5094139;28;20456;-81
2023/07/13 10:14:46;;;;;;;8.17;2.20;;;;;;;;;;5093608;28;20468;-79
2023/07/13 10:17:13;;;;;;;4.10;1.80;;;;;;;;;;5093472;28;20751;-79
2023/07/13 10:19:42;;;;;;;6.20;1.97;;;;;;;;;;5094705;28;20735;-81
2023/07/13 10:22:27;;;;;;;2.97;1.83;;;;;;;;;;5093188;28;20404;-81
2023/07/13 10:24:54;;;;;;;3.83;1.77;;;;;;;;;;5094194;28;20376;-81
2023/07/13 10:27:25;;;;;;;7.80;1.70;;;;;;;;;;5092927;28;20504;-80
2023/07/13 10:29:54;;;;;;;6.40;1.40;;;;;;;;;;5091568;28;20429;-80
2023/07/13 10:32:23;;;;;;;5.77;1.93;;;;;;;;;;5092514;28;20793;-81
2023/07/13 10:34:52;;;;;;;4.10;1.73;;;;;;;;;;5094028;28;20776;-80
2023/07/13 10:37:21;;;;;;;8.00;2.53;;;;;;;;;;5093227;28;20490;-81
2023/07/13 10:39:47;;;;;;;3.73;1.60;;;;;;;;;;5093488;28;20464;-83
2023/07/13 10:42:18;;;;;;;8.93;2.37;;;;;;;;;;5076045;28;20468;-80
2023/07/13 10:44:44;;;;;;;1.83;1.60;;;;;;;;;;5091616;28;20457;-81
2023/07/13 10:47:14;;;;;;;4.67;1.97;;;;;;;;;;5075807;28;20450;-81
2023/07/13 10:49:41;;;;;;;3.10;1.83;;;;;;;;;;5092774;28;20462;-80
2023/07/13 10:52:27;;;;;;;3.77;1.87;;;;;;;;;;5092440;28;20398;-80
2023/07/13 10:54:53;;;;;;;6.30;2.17;;;;;;;;;;5094496;28;20413;-81
2023/07/13 10:57:20;;;;;;;3.70;1.60;;;;;;;;;;5095285;28;20385;-81
2023/07/13 10:59:48;;;;;;;7.70;2.07;;;;;;;;;;5095093;28;20530;-82
2023/07/13 11:02:17;;;;;;;3.30;1.53;;;;;;;;;;5096044;28;20412;-81
2023/07/13 11:04:45;;;;;;;2.80;1.50;;;;;;;;;;5097137;28;20471;-82
2023/07/13 11:07:18;;;;;;;8.00;1.90;;;;;;;;;;5096980;28;20410;-82
2023/07/13 11:09:47;;;;;;;4.67;2.27;;;;;;;;;;5097591;28;20393;-82
2023/07/13 11:12:22;;;;;;;5.30;1.47;;;;;;;;;;5095802;28;20724;-81
2023/07/13 11:14:54;;;;;;;10.60;1.70;;;;;;;;;;5095821;28;20402;-82
2023/07/13 11:17:30;;;;;;;2.60;1.70;;;;;;;;;;5096891;28;20398;-81
2023/07/13 11:20:14;;;;;;;3.50;1.70;;;;;;;;;;5097013;28;20452;-82
2023/07/13 11:22:43;;;;;;;2.90;1.50;;;;;;;;;;5095057;28;20456;-82
2023/07/13 11:25:28;;;;;;;4.70;1.90;;;;;;;;;;5095297;28;20756;-81
2023/07/13 11:28:03;;;;;;;11.17;2.20;;;;;;;;;;5095932;28;20441;-81
2023/07/13 11:30:29;;;;;;;3.27;1.63;;;;;;;;;;5095105;28;20765;-82
2023/07/13 11:33:12;;;;;;;5.37;1.60;;;;;;;;;;5096528;28;20422;-81
2023/07/13 11:35:41;;;;;;;4.20;1.73;;;;;;;;;;5096312;28;20386;-82
2023/07/13 11:38:24;;;;;;;5.30;1.57;;;;;;;;;;5096082;28;20729;-81
2023/07/13 11:40:52;;;;;;;6.47;1.87;;;;;;;;;;5096426;28;20791;-82
2023/07/13 11:43:18;;;;;;;8.60;2.10;;;;;;;;;;5094119;28;20449;-82
2023/07/13 11:45:44;;;;;;;3.87;1.80;;;;;;;;;;5096538;28;20398;-81
2023/07/13 11:48:21;;;;;;;3.57;1.83;;;;;;;;;;5096429;28;20874;-82
2023/07/13 11:50:50;;;;;;;6.90;1.90;;;;;;;;;;5094858;28;20472;-82
2023/07/13 11:53:16;;;;;;;5.07;1.90;;;;;;;;;;5096262;28;20801;-82
2023/07/13 11:55:43;;;;;;;5.37;1.83;;;;;;;;;;5097594;28;20436;-81
2023/07/13 11:58:10;;;;;;;10.90;1.90;;;;;;;;;;5093684;28;20405;-80
2023/07/13 12:00:38;;;;;;;4.97;1.47;;;;;;;;;;5096306;28;20381;-80
2023/07/13 12:03:05;;;;;;;4.47;1.77;;;;;;;;;;5096024;28;20549;-81
2023/07/13 12:05:32;;;;;;;3.57;1.43;;;;;;;;;;5094766;28;20449;-80
2023/07/13 12:07:58;;;;;;;3.40;1.50;;;;;;;;;;5095515;28;20398;-80
2023/07/13 12:10:28;;;;;;;4.30;1.80;;;;;;;;;;5094824;28;20381;-80
2023/07/13 12:12:54;;;;;;;6.87;2.03;;;;;;;;;;5095062;28;20414;-81
2023/07/13 12:15:27;;;;;;;6.20;1.73;;;;;;;;;;5096548;28;20788;-81
2023/07/13 12:17:53;;;;;;;2.63;1.40;;;;;;;;;;5094562;28;20886;-82
2023/07/13 12:20:27;;;;;;;3.23;1.43;;;;;;;;;;5077224;28;20403;-81
2023/07/13 12:22:53;;;;;;;6.43;2.13;;;;;;;;;;5093928;28;20454;-81
2023/07/13 12:25:20;;;;;;;2.97;1.50;;;;;;;;;;5094537;28;20418;-80
2023/07/13 12:27:50;;;;;;;3.50;1.50;;;;;;;;;;5093901;28;20402;-79
2023/07/13 12:30:29;;;;;;;3.73;1.73;;;;;;;;;;5095453;28;20885;-81
2023/07/13 12:33:08;;;;;;;4.53;1.47;;;;;;;;;;5095909;28;20417;-81
2023/07/13 12:35:40;;;;;;;5.07;1.70;;;;;;;;;;5094499;28;20418;-80
2023/07/13 12:38:09;;;;;;;3.40;1.40;;;;;;;;;;5095229;28;20391;-81
2023/07/13 12:40:36;;;;;;;3.37;1.20;;;;;;;;;;5093171;28;20402;-81
2023/07/13 12:43:04;;;;;;;2.70;1.30;;;;;;;;;;5094240;28;20527;-81
2023/07/13 12:45:30;;;;;;;3.67;1.80;;;;;;;;;;5076667;28;20418;-81
2023/07/13 12:48:01;;;;;;;3.53;1.40;;;;;;;;;;5093364;28;20480;-81
2023/07/13 12:50:36;;;;;;;5.03;1.50;;;;;;;;;;5092839;28;20402;-81
2023/07/13 12:53:06;;;;;;;7.33;1.53;;;;;;;;;;5094294;28;20386;-80
2023/07/13 12:55:40;;;;;;;4.50;1.83;;;;;;;;;;5094121;28;20882;-81
2023/07/13 12:58:08;;;;;;;10.83;1.83;;;;;;;;;;5090876;28;20429;-79
2023/07/13 13:00:37;;;;;;;3.60;1.40;;;;;;;;;;5094336;28;20465;-81
2023/07/13 13:03:07;;;;;;;3.30;1.40;;;;;;;;;;5094091;28;20933;-80
2023/07/13 13:05:34;;;;;;;2.73;1.30;;;;;;;;;;5093975;28;20438;-80
2023/07/13 13:08:00;;;;;;;1.80;1.27;;;;;;;;;;5094700;28;20430;-80
2023/07/13 13:10:26;;;;;;;3.63;1.60;;;;;;;;;;5075634;28;20418;-80
2023/07/13 13:12:53;;;;;;;3.17;1.80;;;;;;;;;;5093255;28;20471;-89
2023/07/13 13:15:19;;;;;;;4.33;1.50;;;;;;;;;;5092116;28;20414;-82
2023/07/13 13:17:45;;;;;;;6.00;1.60;;;;;;;;;;5094350;28;20407;-81
2023/07/13 13:20:19;;;;;;;6.40;1.47;;;;;;;;;;5092779;28;20509;-81
2023/07/13 13:22:45;;;;;;;6.53;1.63;;;;;;;;;;5091643;28;20450;-81
2023/07/13 13:25:11;;;;;;;5.57;1.40;;;;;;;;;;5093831;28;20451;-82
2023/07/13 13:27:37;;;;;;;6.50;1.70;;;;;;;;;;5076063;28;20415;-82
2023/07/13 13:30:05;;;;;;;5.33;1.67;;;;;;;;;;5091190;28;20480;-81
2023/07/13 13:32:31;;;;;;;4.00;1.20;;;;;;;;;;5094186;28;20902;-81
2023/07/13 13:34:57;;;;;;;2.97;1.10;;;;;;;;;;5076010;28;20417;-82
2023/07/13 13:37:25;;;;;;;5.20;1.60;;;;;;;;;;5091673;28;20894;-81
2023/07/13 13:39:53;;;;;;;3.77;1.30;;;;;;;;;;5093730;28;20398;-81
2023/07/13 13:42:21;;;;;;;5.17;1.60;;;;;;;;;;5093155;28;20411;-81
2023/07/13 13:44:47;;;;;;;5.17;1.30;;;;;;;;;;5091832;28;20524;-81
2023/07/13 13:47:23;;;;;;;6.00;1.60;;;;;;;;;;5096551;28;20411;-80
2023/07/13 13:49:49;;;;;;;2.60;1.33;;;;;;;;;;5092609;28;20445;-81
2023/07/13 13:52:15;;;;;;;6.43;1.57;;;;;;;;;;5092672;28;20441;-81
2023/07/13 13:54:41;;;;;;;7.53;1.90;;;;;;;;;;5093995;28;20402;-81
2023/07/13 13:57:07;;;;;;;5.83;1.90;;;;;;;;;;5098685;28;20406;-81
2023/07/13 13:59:39;;;;;;;7.47;1.80;;;;;;;;;;5090147;28;20795;-81
2023/07/13 14:02:11;;;;;;;6.90;1.40;;;;;;;;;;5091657;28;20396;-81
2023/07/13 14:04:37;;;;;;;7.57;1.80;;;;;;;;;;5093810;28;20406;-81
2023/07/13 14:07:03;;;;;;;3.30;1.10;;;;;;;;;;5092708;28;20411;-82
2023/07/13 14:09:30;;;;;;;8.03;1.80;;;;;;;;;;5092271;28;20406;-80
2023/07/13 14:11:57;;;;;;;7.43;1.50;;;;;;;;;;5091873;28;20917;-81
2023/07/13 14:14:25;;;;;;;5.33;1.10;;;;;;;;;;5093267;28;20834;-80
2023/07/13 14:16:53;;;;;;;5.23;1.90;;;;;;;;;;5091732;28;20422;-80
2023/07/13 14:19:19;;;;;;;10.30;1.53;;;;;;;;;;5091031;28;20785;-81
2023/07/13 14:21:47;;;;;;;4.73;1.57;;;;;;;;;;5091742;28;20460;-83
2023/07/13 14:24:13;;;;;;;6.73;1.90;;;;;;;;;;5091360;28;20457;-81
2023/07/13 14:26:40;;;;;;;1.53;1.10;;;;;;;;;;5091574;28;20930;-81
2023/07/13 14:29:13;;;;;;;5.27;1.40;;;;;;;;;;5090976;28;20484;-81
2023/07/13 14:31:39;;;;;;;5.30;1.80;;;;;;;;;;5093532;28;20406;-80
2023/07/13 14:34:05;;;;;;;3.47;1.53;;;;;;;;;;5095894;28;20412;-80
2023/07/13 14:36:36;;;;;;;3.30;1.33;;;;;;;;;;5095609;28;20486;-80
2023/07/13 14:39:11;;;;;;;3.50;1.60;;;;;;;;;;5095326;28;20410;-81
2023/07/13 14:41:37;;;;;;;2.40;1.50;;;;;;;;;;5094533;28;20393;-80
2023/07/13 14:44:09;;;;;;;3.43;1.60;;;;;;;;;;5095250;28;20461;-81
2023/07/13 14:46:35;;;;;;;1.73;1.20;;;;;;;;;;5096848;28;20387;-81